sensor_id;sensor_type;location;lat;lon;timestamp;temperature;humidity
24902;DHT22;31328;51.402;0.016;2023-06-26T00:01:39;18.60;75.10
24902;DHT22;31328;51.402;0.016;2023-06-26T00:04:06;18.50;75.20
24902;DHT22;31328;51.402;0.016;2023-06-26T00:06:32;18.50;75.30
24902;DHT22;31328;51.402;0.016;2023-06-26T00:08:58;18.50;75.60
24902;DHT22;31328;51.402;0.016;2023-06-26T00:11:24;18.50;75.70
24902;DHT22;31328;51.402;0.016;2023-06-26T00:13:53;18.40;76.00
24902;DHT22;31328;51.402;0.016;2023-06-26T00:16:19;18.40;76.10
24902;DHT22;31328;51.402;0.016;2023-06-26T00:18:46;18.40;76.20
24902;DHT22;31328;51.402;0.016;2023-06-26T00:21:12;18.30;76.50
24902;DHT22;31328;51.402;0.016;2023-06-26T00:23:38;18.30;76.60
24902;DHT22;31328;51.402;0.016;2023-06-26T00:26:05;18.20;76.60
24902;DHT22;31328;51.402;0.016;2023-06-26T00:28:31;18.20;76.90
24902;DHT22;31328;51.402;0.016;2023-06-26T00:30:57;18.20;77.00
24902;DHT22;31328;51.402;0.016;2023-06-26T00:33:24;18.20;77.40
24902;DHT22;31328;51.402;0.016;2023-06-26T00:35:50;18.20;77.40
24902;DHT22;31328;51.402;0.016;2023-06-26T00:38:17;18.10;77.40
24902;DHT22;31328;51.402;0.016;2023-06-26T00:40:43;18.10;77.60
24902;DHT22;31328;51.402;0.016;2023-06-26T00:43:10;18.10;77.90
24902;DHT22;31328;51.402;0.016;2023-06-26T00:45:36;18.00;77.90
24902;DHT22;31328;51.402;0.016;2023-06-26T00:48:03;18.00;78.20
24902;DHT22;31328;51.402;0.016;2023-06-26T00:50:29;18.00;78.20
24902;DHT22;31328;51.402;0.016;2023-06-26T00:52:55;18.00;78.40
24902;DHT22;31328;51.402;0.016;2023-06-26T00:55:27;17.90;78.60
24902;DHT22;31328;51.402;0.016;2023-06-26T00:57:54;17.90;78.70
24902;DHT22;31328;51.402;0.016;2023-06-26T01:00:21;17.90;79.00
24902;DHT22;31328;51.402;0.016;2023-06-26T01:02:47;17.80;79.10
24902;DHT22;31328;51.402;0.016;2023-06-26T01:05:14;17.90;79.30
24902;DHT22;31328;51.402;0.016;2023-06-26T01:07:49;17.80;79.30
24902;DHT22;31328;51.402;0.016;2023-06-26T01:10:16;17.80;79.50
24902;DHT22;31328;51.402;0.016;2023-06-26T01:12:43;17.70;79.60
24902;DHT22;31328;51.402;0.016;2023-06-26T01:15:09;17.70;79.70
24902;DHT22;31328;51.402;0.016;2023-06-26T01:17:37;17.70;79.90
24902;DHT22;31328;51.402;0.016;2023-06-26T01:20:05;17.70;80.10
24902;DHT22;31328;51.402;0.016;2023-06-26T01:23:01;17.70;80.50
24902;DHT22;31328;51.402;0.016;2023-06-26T01:25:37;17.70;80.60
24902;DHT22;31328;51.402;0.016;2023-06-26T01:28:05;17.60;80.50
24902;DHT22;31328;51.402;0.016;2023-06-26T01:30:32;17.60;80.70
24902;DHT22;31328;51.402;0.016;2023-06-26T01:33:00;17.50;80.70
24902;DHT22;31328;51.402;0.016;2023-06-26T01:35:28;17.50;81.00
24902;DHT22;31328;51.402;0.016;2023-06-26T01:38:16;17.50;81.00
24902;DHT22;31328;51.402;0.016;2023-06-26T01:40:42;17.40;81.00
24902;DHT22;31328;51.402;0.016;2023-06-26T01:43:20;17.40;81.40
24902;DHT22;31328;51.402;0.016;2023-06-26T01:45:51;17.40;81.50
24902;DHT22;31328;51.402;0.016;2023-06-26T01:48:24;17.40;81.70
24902;DHT22;31328;51.402;0.016;2023-06-26T01:50:53;17.40;81.80
24902;DHT22;31328;51.402;0.016;2023-06-26T01:53:24;17.40;81.90
24902;DHT22;31328;51.402;0.016;2023-06-26T01:56:00;17.30;82.00
24902;DHT22;31328;51.402;0.016;2023-06-26T01:58:30;17.30;82.20
24902;DHT22;31328;51.402;0.016;2023-06-26T02:00:57;17.30;82.30
24902;DHT22;31328;51.402;0.016;2023-06-26T02:03:24;17.30;82.50
24902;DHT22;31328;51.402;0.016;2023-06-26T02:05:50;17.20;82.60
24902;DHT22;31328;51.402;0.016;2023-06-26T02:08:17;17.20;82.90
24902;DHT22;31328;51.402;0.016;2023-06-26T02:10:49;17.20;82.80
24902;DHT22;31328;51.402;0.016;2023-06-26T02:13:16;17.20;82.90
24902;DHT22;31328;51.402;0.016;2023-06-26T02:15:42;17.20;83.00
24902;DHT22;31328;51.402;0.016;2023-06-26T02:18:09;17.10;83.10
24902;DHT22;31328;51.402;0.016;2023-06-26T02:20:36;17.10;83.30
24902;DHT22;31328;51.402;0.016;2023-06-26T02:23:02;17.10;83.40
24902;DHT22;31328;51.402;0.016;2023-06-26T02:25:29;17.10;83.50
24902;DHT22;31328;51.402;0.016;2023-06-26T02:27:55;17.00;83.70
24902;DHT22;31328;51.402;0.016;2023-06-26T02:30:21;17.00;83.70
24902;DHT22;31328;51.402;0.016;2023-06-26T02:32:48;17.00;84.00
24902;DHT22;31328;51.402;0.016;2023-06-26T02:35:14;17.00;84.10
24902;DHT22;31328;51.402;0.016;2023-06-26T02:37:43;16.90;84.10
24902;DHT22;31328;51.402;0.016;2023-06-26T02:40:11;16.90;84.50
24902;DHT22;31328;51.402;0.016;2023-06-26T02:42:38;16.90;84.50
24902;DHT22;31328;51.402;0.016;2023-06-26T02:45:05;16.90;84.70
24902;DHT22;31328;51.402;0.016;2023-06-26T02:47:33;16.90;84.80
24902;DHT22;31328;51.402;0.016;2023-06-26T02:49:59;16.90;85.20
24902;DHT22;31328;51.402;0.016;2023-06-26T02:52:26;16.80;85.10
24902;DHT22;31328;51.402;0.016;2023-06-26T02:54:54;16.80;85.20
24902;DHT22;31328;51.402;0.016;2023-06-26T02:57:21;16.80;85.40
24902;DHT22;31328;51.402;0.016;2023-06-26T02:59:49;16.80;85.50
24902;DHT22;31328;51.402;0.016;2023-06-26T03:02:15;16.80;85.80
24902;DHT22;31328;51.402;0.016;2023-06-26T03:04:45;16.80;85.70
24902;DHT22;31328;51.402;0.016;2023-06-26T03:07:13;16.70;85.80
24902;DHT22;31328;51.402;0.016;2023-06-26T03:09:41;16.70;86.20
24902;DHT22;31328;51.402;0.016;2023-06-26T03:12:08;16.70;86.20
24902;DHT22;31328;51.402;0.016;2023-06-26T03:14:34;16.70;86.50
24902;DHT22;31328;51.402;0.016;2023-06-26T03:17:01;16.70;86.60
24902;DHT22;31328;51.402;0.016;2023-06-26T03:19:30;16.70;86.60
24902;DHT22;31328;51.402;0.016;2023-06-26T03:22:26;16.60;86.60
24902;DHT22;31328;51.402;0.016;2023-06-26T03:24:52;16.60;86.80
24902;DHT22;31328;51.402;0.016;2023-06-26T03:27:19;16.60;86.90
24902;DHT22;31328;51.402;0.016;2023-06-26T03:29:46;16.60;87.00
24902;DHT22;31328;51.402;0.016;2023-06-26T03:32:13;16.60;87.20
24902;DHT22;31328;51.402;0.016;2023-06-26T03:34:39;16.50;87.40
24902;DHT22;31328;51.402;0.016;2023-06-26T03:37:06;16.50;87.50
24902;DHT22;31328;51.402;0.016;2023-06-26T03:39:33;16.50;87.60
24902;DHT22;31328;51.402;0.016;2023-06-26T03:42:00;16.50;87.80
24902;DHT22;31328;51.402;0.016;2023-06-26T03:44:27;16.50;88.10
24902;DHT22;31328;51.402;0.016;2023-06-26T03:46:54;16.40;88.10
24902;DHT22;31328;51.402;0.016;2023-06-26T03:49:20;16.40;88.30
24902;DHT22;31328;51.402;0.016;2023-06-26T03:51:47;16.40;88.40
24902;DHT22;31328;51.402;0.016;2023-06-26T03:54:14;16.40;88.50
24902;DHT22;31328;51.402;0.016;2023-06-26T03:56:42;16.40;88.60
24902;DHT22;31328;51.402;0.016;2023-06-26T03:59:09;16.40;88.90
24902;DHT22;31328;51.402;0.016;2023-06-26T04:01:36;16.40;88.90
24902;DHT22;31328;51.402;0.016;2023-06-26T04:04:05;16.40;89.00
24902;DHT22;31328;51.402;0.016;2023-06-26T04:06:32;16.40;89.40
24902;DHT22;31328;51.402;0.016;2023-06-26T04:09:00;16.30;89.60
24902;DHT22;31328;51.402;0.016;2023-06-26T04:11:26;16.30;89.60
24902;DHT22;31328;51.402;0.016;2023-06-26T04:13:53;16.30;89.90
24902;DHT22;31328;51.402;0.016;2023-06-26T04:16:21;16.30;90.10
24902;DHT22;31328;51.402;0.016;2023-06-26T04:18:47;16.30;90.10
24902;DHT22;31328;51.402;0.016;2023-06-26T04:21:13;16.30;90.20
24902;DHT22;31328;51.402;0.016;2023-06-26T04:23:40;16.30;90.20
24902;DHT22;31328;51.402;0.016;2023-06-26T04:26:07;16.20;90.30
24902;DHT22;31328;51.402;0.016;2023-06-26T04:28:35;16.30;90.40
24902;DHT22;31328;51.402;0.016;2023-06-26T04:31:02;16.30;90.40
24902;DHT22;31328;51.402;0.016;2023-06-26T04:33:32;16.30;90.40
24902;DHT22;31328;51.402;0.016;2023-06-26T04:35:58;16.30;90.40
24902;DHT22;31328;51.402;0.016;2023-06-26T04:38:25;16.30;90.50
24902;DHT22;31328;51.402;0.016;2023-06-26T04:40:52;16.20;90.50
24902;DHT22;31328;51.402;0.016;2023-06-26T04:43:18;16.30;90.60
24902;DHT22;31328;51.402;0.016;2023-06-26T04:45:44;16.30;91.00
24902;DHT22;31328;51.402;0.016;2023-06-26T04:48:11;16.30;90.90
24902;DHT22;31328;51.402;0.016;2023-06-26T04:50:37;16.30;90.80
24902;DHT22;31328;51.402;0.016;2023-06-26T04:53:03;16.30;90.90
24902;DHT22;31328;51.402;0.016;2023-06-26T04:55:29;16.30;90.90
24902;DHT22;31328;51.402;0.016;2023-06-26T04:57:56;16.30;91.00
24902;DHT22;31328;51.402;0.016;2023-06-26T05:00:23;16.30;91.00
24902;DHT22;31328;51.402;0.016;2023-06-26T05:02:51;16.30;91.00
24902;DHT22;31328;51.402;0.016;2023-06-26T05:05:27;16.30;91.00
24902;DHT22;31328;51.402;0.016;2023-06-26T05:07:55;16.30;91.10
24902;DHT22;31328;51.402;0.016;2023-06-26T05:10:22;16.40;91.10
24902;DHT22;31328;51.402;0.016;2023-06-26T05:12:48;16.40;91.20
24902;DHT22;31328;51.402;0.016;2023-06-26T05:15:15;16.40;91.10
24902;DHT22;31328;51.402;0.016;2023-06-26T05:17:41;16.40;91.20
24902;DHT22;31328;51.402;0.016;2023-06-26T05:20:08;16.40;91.20
24902;DHT22;31328;51.402;0.016;2023-06-26T05:22:36;16.40;91.20
24902;DHT22;31328;51.402;0.016;2023-06-26T05:25:05;16.40;91.20
24902;DHT22;31328;51.402;0.016;2023-06-26T05:27:33;16.40;91.20
24902;DHT22;31328;51.402;0.016;2023-06-26T05:30:00;16.50;91.20
24902;DHT22;31328;51.402;0.016;2023-06-26T05:32:26;16.50;91.30
24902;DHT22;31328;51.402;0.016;2023-06-26T05:34:54;16.50;91.40
24902;DHT22;31328;51.402;0.016;2023-06-26T05:37:21;16.50;91.30
24902;DHT22;31328;51.402;0.016;2023-06-26T05:39:48;16.50;91.40
24902;DHT22;31328;51.402;0.016;2023-06-26T05:42:15;16.50;91.40
24902;DHT22;31328;51.402;0.016;2023-06-26T05:44:41;16.50;91.40
24902;DHT22;31328;51.402;0.016;2023-06-26T05:47:08;16.60;91.40
24902;DHT22;31328;51.402;0.016;2023-06-26T05:49:34;16.50;91.40
24902;DHT22;31328;51.402;0.016;2023-06-26T05:52:01;16.60;91.50
24902;DHT22;31328;51.402;0.016;2023-06-26T05:54:27;16.60;91.30
24902;DHT22;31328;51.402;0.016;2023-06-26T05:56:56;16.60;91.30
24902;DHT22;31328;51.402;0.016;2023-06-26T05:59:23;16.60;91.40
24902;DHT22;31328;51.402;0.016;2023-06-26T06:01:49;16.70;91.40
24902;DHT22;31328;51.402;0.016;2023-06-26T06:04:16;16.70;91.40
24902;DHT22;31328;51.402;0.016;2023-06-26T06:06:42;16.80;91.50
24902;DHT22;31328;51.402;0.016;2023-06-26T06:09:08;16.80;91.50
24902;DHT22;31328;51.402;0.016;2023-06-26T06:11:35;16.80;91.40
24902;DHT22;31328;51.402;0.016;2023-06-26T06:14:01;16.90;91.40
24902;DHT22;31328;51.402;0.016;2023-06-26T06:16:28;16.80;91.30
24902;DHT22;31328;51.402;0.016;2023-06-26T06:18:55;16.90;91.40
24902;DHT22;31328;51.402;0.016;2023-06-26T06:21:21;16.90;91.30
24902;DHT22;31328;51.402;0.016;2023-06-26T06:23:48;17.00;91.30
24902;DHT22;31328;51.402;0.016;2023-06-26T06:26:14;17.00;91.30
24902;DHT22;31328;51.402;0.016;2023-06-26T06:28:40;17.10;91.30
24902;DHT22;31328;51.402;0.016;2023-06-26T06:31:06;17.10;91.20
24902;DHT22;31328;51.402;0.016;2023-06-26T06:33:33;17.20;91.30
24902;DHT22;31328;51.402;0.016;2023-06-26T06:36:00;17.30;91.20
24902;DHT22;31328;51.402;0.016;2023-06-26T06:38:26;17.40;91.10
24902;DHT22;31328;51.402;0.016;2023-06-26T06:40:52;17.40;91.00
24902;DHT22;31328;51.402;0.016;2023-06-26T06:43:19;17.50;91.00
24902;DHT22;31328;51.402;0.016;2023-06-26T06:45:45;17.50;90.90
24902;DHT22;31328;51.402;0.016;2023-06-26T06:48:11;17.60;90.90
24902;DHT22;31328;51.402;0.016;2023-06-26T06:50:38;17.60;90.90
24902;DHT22;31328;51.402;0.016;2023-06-26T06:53:04;17.60;90.90
24902;DHT22;31328;51.402;0.016;2023-06-26T06:55:30;17.60;90.90
24902;DHT22;31328;51.402;0.016;2023-06-26T06:57:57;17.60;90.80
24902;DHT22;31328;51.402;0.016;2023-06-26T07:00:23;17.60;90.80
24902;DHT22;31328;51.402;0.016;2023-06-26T07:02:49;17.60;90.80
24902;DHT22;31328;51.402;0.016;2023-06-26T07:05:16;17.70;90.80
24902;DHT22;31328;51.402;0.016;2023-06-26T07:07:42;17.70;90.80
24902;DHT22;31328;51.402;0.016;2023-06-26T07:10:11;17.80;90.70
24902;DHT22;31328;51.402;0.016;2023-06-26T07:12:38;17.80;90.70
24902;DHT22;31328;51.402;0.016;2023-06-26T07:15:05;17.80;90.60
24902;DHT22;31328;51.402;0.016;2023-06-26T07:17:33;17.80;90.50
24902;DHT22;31328;51.402;0.016;2023-06-26T07:20:00;17.90;90.60
24902;DHT22;31328;51.402;0.016;2023-06-26T07:22:27;17.90;90.60
24902;DHT22;31328;51.402;0.016;2023-06-26T07:24:53;17.90;90.50
24902;DHT22;31328;51.402;0.016;2023-06-26T07:27:20;18.00;90.50
24902;DHT22;31328;51.402;0.016;2023-06-26T07:29:46;18.00;90.50
24902;DHT22;31328;51.402;0.016;2023-06-26T07:32:13;18.10;90.50
24902;DHT22;31328;51.402;0.016;2023-06-26T07:34:39;18.10;90.40
24902;DHT22;31328;51.402;0.016;2023-06-26T07:37:05;18.10;90.40
24902;DHT22;31328;51.402;0.016;2023-06-26T07:39:32;18.20;90.30
24902;DHT22;31328;51.402;0.016;2023-06-26T07:41:58;18.30;90.20
24902;DHT22;31328;51.402;0.016;2023-06-26T07:44:25;18.30;90.20
24902;DHT22;31328;51.402;0.016;2023-06-26T07:46:52;18.40;90.10
24902;DHT22;31328;51.402;0.016;2023-06-26T07:49:18;18.40;90.10
24902;DHT22;31328;51.402;0.016;2023-06-26T07:51:45;18.50;90.10
24902;DHT22;31328;51.402;0.016;2023-06-26T07:54:11;18.50;90.00
24902;DHT22;31328;51.402;0.016;2023-06-26T07:56:57;18.60;90.00
24902;DHT22;31328;51.402;0.016;2023-06-26T07:59:25;18.70;89.90
24902;DHT22;31328;51.402;0.016;2023-06-26T08:01:53;18.70;89.50
24902;DHT22;31328;51.402;0.016;2023-06-26T08:04:21;18.70;89.40
24902;DHT22;31328;51.402;0.016;2023-06-26T08:06:49;18.80;89.10
24902;DHT22;31328;51.402;0.016;2023-06-26T08:09:16;18.80;89.00
24902;DHT22;31328;51.402;0.016;2023-06-26T08:11:43;18.80;89.00
24902;DHT22;31328;51.402;0.016;2023-06-26T08:14:09;18.80;89.10
24902;DHT22;31328;51.402;0.016;2023-06-26T08:16:35;18.80;89.00
24902;DHT22;31328;51.402;0.016;2023-06-26T08:19:02;18.90;88.90
24902;DHT22;31328;51.402;0.016;2023-06-26T08:21:28;19.00;88.90
24902;DHT22;31328;51.402;0.016;2023-06-26T08:23:55;19.00;88.70
24902;DHT22;31328;51.402;0.016;2023-06-26T08:26:21;19.10;89.30
24902;DHT22;31328;51.402;0.016;2023-06-26T08:28:47;19.10;88.30
24902;DHT22;31328;51.402;0.016;2023-06-26T08:31:14;19.20;88.00
24902;DHT22;31328;51.402;0.016;2023-06-26T08:33:40;19.30;88.10
24902;DHT22;31328;51.402;0.016;2023-06-26T08:36:07;19.40;87.60
24902;DHT22;31328;51.402;0.016;2023-06-26T08:38:33;19.50;87.60
24902;DHT22;31328;51.402;0.016;2023-06-26T08:40:59;19.60;87.60
24902;DHT22;31328;51.402;0.016;2023-06-26T08:43:26;19.70;87.20
24902;DHT22;31328;51.402;0.016;2023-06-26T08:45:54;19.90;87.10
24902;DHT22;31328;51.402;0.016;2023-06-26T08:48:21;19.90;86.70
24902;DHT22;31328;51.402;0.016;2023-06-26T08:50:52;20.00;86.70
24902;DHT22;31328;51.402;0.016;2023-06-26T08:56:25;20.20;86.10
24902;DHT22;31328;51.402;0.016;2023-06-26T08:58:54;20.30;85.80
24902;DHT22;31328;51.402;0.016;2023-06-26T09:01:21;20.40;85.70
24902;DHT22;31328;51.402;0.016;2023-06-26T09:03:47;20.50;85.40
24902;DHT22;31328;51.402;0.016;2023-06-26T09:06:13;20.60;84.90
24902;DHT22;31328;51.402;0.016;2023-06-26T09:08:40;20.70;84.70
24902;DHT22;31328;51.402;0.016;2023-06-26T09:11:13;20.80;84.50
24902;DHT22;31328;51.402;0.016;2023-06-26T09:13:40;20.90;84.00
24902;DHT22;31328;51.402;0.016;2023-06-26T09:16:07;21.00;83.90
24902;DHT22;31328;51.402;0.016;2023-06-26T09:18:34;21.20;82.50
24902;DHT22;31328;51.402;0.016;2023-06-26T09:21:06;21.30;82.30
24902;DHT22;31328;51.402;0.016;2023-06-26T09:23:34;21.40;81.80
24902;DHT22;31328;51.402;0.016;2023-06-26T09:26:05;21.50;81.40
24902;DHT22;31328;51.402;0.016;2023-06-26T09:28:35;21.60;81.00
24902;DHT22;31328;51.402;0.016;2023-06-26T09:31:06;21.70;80.70
24902;DHT22;31328;51.402;0.016;2023-06-26T09:33:36;21.70;80.20
24902;DHT22;31328;51.402;0.016;2023-06-26T09:36:18;21.80;80.10
24902;DHT22;31328;51.402;0.016;2023-06-26T09:38:45;21.90;79.50
24902;DHT22;31328;51.402;0.016;2023-06-26T09:41:11;22.10;79.50
24902;DHT22;31328;51.402;0.016;2023-06-26T09:43:50;22.20;78.80
24902;DHT22;31328;51.402;0.016;2023-06-26T09:48:50;22.40;77.70
24902;DHT22;31328;51.402;0.016;2023-06-26T09:51:23;22.40;77.00
24902;DHT22;31328;51.402;0.016;2023-06-26T09:53:50;22.30;76.90
24902;DHT22;31328;51.402;0.016;2023-06-26T09:56:17;22.30;77.30
24902;DHT22;31328;51.402;0.016;2023-06-26T09:58:44;22.30;77.10
24902;DHT22;31328;51.402;0.016;2023-06-26T10:01:10;22.30;76.80
24902;DHT22;31328;51.402;0.016;2023-06-26T10:03:37;22.30;76.20
24902;DHT22;31328;51.402;0.016;2023-06-26T10:06:03;22.20;76.10
24902;DHT22;31328;51.402;0.016;2023-06-26T10:08:30;22.20;76.30
24902;DHT22;31328;51.402;0.016;2023-06-26T10:10:57;22.20;75.70
24902;DHT22;31328;51.402;0.016;2023-06-26T10:13:43;22.30;75.90
24902;DHT22;31328;51.402;0.016;2023-06-26T10:16:13;22.30;74.90
24902;DHT22;31328;51.402;0.016;2023-06-26T10:18:43;22.40;75.20
24902;DHT22;31328;51.402;0.016;2023-06-26T10:21:11;22.40;75.10
24902;DHT22;31328;51.402;0.016;2023-06-26T10:23:40;22.40;74.70
24902;DHT22;31328;51.402;0.016;2023-06-26T10:26:08;22.40;74.60
24902;DHT22;31328;51.402;0.016;2023-06-26T10:28:35;22.30;74.90
24902;DHT22;31328;51.402;0.016;2023-06-26T10:31:04;22.40;74.60
24902;DHT22;31328;51.402;0.016;2023-06-26T10:33:32;22.40;73.20
24902;DHT22;31328;51.402;0.016;2023-06-26T10:36:26;22.30;73.10
24902;DHT22;31328;51.402;0.016;2023-06-26T10:38:59;22.30;73.00
24902;DHT22;31328;51.402;0.016;2023-06-26T10:41:28;22.30;72.60
24902;DHT22;31328;51.402;0.016;2023-06-26T10:46:28;22.20;72.20
24902;DHT22;31328;51.402;0.016;2023-06-26T10:48:57;22.10;72.50
24902;DHT22;31328;51.402;0.016;2023-06-26T10:51:25;22.10;72.60
24902;DHT22;31328;51.402;0.016;2023-06-26T10:53:58;22.10;72.20
24902;DHT22;31328;51.402;0.016;2023-06-26T10:56:53;22.10;72.20
24902;DHT22;31328;51.402;0.016;2023-06-26T10:59:24;22.10;71.90
24902;DHT22;31328;51.402;0.016;2023-06-26T11:01:56;22.20;71.60
24902;DHT22;31328;51.402;0.016;2023-06-26T11:04:49;22.20;71.20
24902;DHT22;31328;51.402;0.016;2023-06-26T11:07:24;22.30;71.20
24902;DHT22;31328;51.402;0.016;2023-06-26T11:09:56;22.30;70.80
24902;DHT22;31328;51.402;0.016;2023-06-26T11:12:42;22.40;70.70
24902;DHT22;31328;51.402;0.016;2023-06-26T11:15:16;22.50;70.10
24902;DHT22;31328;51.402;0.016;2023-06-26T11:17:43;22.50;70.00
24902;DHT22;31328;51.402;0.016;2023-06-26T11:20:13;22.50;69.80
24902;DHT22;31328;51.402;0.016;2023-06-26T11:22:41;22.60;69.30
24902;DHT22;31328;51.402;0.016;2023-06-26T11:25:09;22.70;69.10
24902;DHT22;31328;51.402;0.016;2023-06-26T11:27:42;22.80;68.80
24902;DHT22;31328;51.402;0.016;2023-06-26T11:30:10;22.90;68.20
24902;DHT22;31328;51.402;0.016;2023-06-26T11:32:38;22.90;67.40
24902;DHT22;31328;51.402;0.016;2023-06-26T11:35:04;23.00;67.70
24902;DHT22;31328;51.402;0.016;2023-06-26T11:37:34;23.00;67.70
24902;DHT22;31328;51.402;0.016;2023-06-26T11:40:18;23.00;67.60
24902;DHT22;31328;51.402;0.016;2023-06-26T11:42:45;23.10;67.30
24902;DHT22;31328;51.402;0.016;2023-06-26T11:45:11;23.10;67.10
24902;DHT22;31328;51.402;0.016;2023-06-26T11:47:39;23.30;67.30
24902;DHT22;31328;51.402;0.016;2023-06-26T11:50:05;23.40;67.50
24902;DHT22;31328;51.402;0.016;2023-06-26T11:52:33;23.50;66.80
24902;DHT22;31328;51.402;0.016;2023-06-26T11:54:59;23.60;66.90
24902;DHT22;31328;51.402;0.016;2023-06-26T11:57:25;23.70;66.00
24902;DHT22;31328;51.402;0.016;2023-06-26T11:59:52;23.80;65.80
24902;DHT22;31328;51.402;0.016;2023-06-26T12:02:18;23.90;65.60
24902;DHT22;31328;51.402;0.016;2023-06-26T12:04:45;23.90;64.60
24902;DHT22;31328;51.402;0.016;2023-06-26T12:07:12;23.90;63.70
24902;DHT22;31328;51.402;0.016;2023-06-26T12:09:43;23.90;63.10
24902;DHT22;31328;51.402;0.016;2023-06-26T12:12:11;23.90;64.00
24902;DHT22;31328;51.402;0.016;2023-06-26T12:14:38;23.90;64.00
24902;DHT22;31328;51.402;0.016;2023-06-26T12:17:12;23.90;64.30
24902;DHT22;31328;51.402;0.016;2023-06-26T12:19:46;24.00;64.40
24902;DHT22;31328;51.402;0.016;2023-06-26T12:22:16;24.10;63.10
24902;DHT22;31328;51.402;0.016;2023-06-26T12:24:43;24.20;63.70
24902;DHT22;31328;51.402;0.016;2023-06-26T12:27:12;24.10;62.70
24902;DHT22;31328;51.402;0.016;2023-06-26T12:29:41;24.10;62.30
24902;DHT22;31328;51.402;0.016;2023-06-26T12:32:10;23.90;63.00
24902;DHT22;31328;51.402;0.016;2023-06-26T12:34:38;23.90;63.10
24902;DHT22;31328;51.402;0.016;2023-06-26T12:37:06;23.90;62.60
24902;DHT22;31328;51.402;0.016;2023-06-26T12:39:53;23.90;62.60
24902;DHT22;31328;51.402;0.016;2023-06-26T12:42:27;23.90;62.50
24902;DHT22;31328;51.402;0.016;2023-06-26T12:44:54;23.90;62.40
24902;DHT22;31328;51.402;0.016;2023-06-26T12:47:28;24.00;60.80
24902;DHT22;31328;51.402;0.016;2023-06-26T12:49:55;24.00;61.20
24902;DHT22;31328;51.402;0.016;2023-06-26T12:52:22;24.10;61.60
24902;DHT22;31328;51.402;0.016;2023-06-26T12:54:53;24.10;61.10
24902;DHT22;31328;51.402;0.016;2023-06-26T12:57:20;24.10;61.10
24902;DHT22;31328;51.402;0.016;2023-06-26T12:59:47;24.10;60.40
24902;DHT22;31328;51.402;0.016;2023-06-26T13:02:13;24.10;60.00
24902;DHT22;31328;51.402;0.016;2023-06-26T13:04:41;24.10;59.90
24902;DHT22;31328;51.402;0.016;2023-06-26T13:07:08;24.00;60.10
24902;DHT22;31328;51.402;0.016;2023-06-26T13:09:34;23.90;60.90
24902;DHT22;31328;51.402;0.016;2023-06-26T13:12:01;23.90;61.00
24902;DHT22;31328;51.402;0.016;2023-06-26T13:14:31;23.90;59.90
24902;DHT22;31328;51.402;0.016;2023-06-26T13:16:58;23.90;60.00
24902;DHT22;31328;51.402;0.016;2023-06-26T13:19:24;23.90;60.00
24902;DHT22;31328;51.402;0.016;2023-06-26T13:21:50;23.90;59.50
24902;DHT22;31328;51.402;0.016;2023-06-26T13:24:17;23.90;59.30
24902;DHT22;31328;51.402;0.016;2023-06-26T13:26:43;23.90;59.40
24902;DHT22;31328;51.402;0.016;2023-06-26T13:29:09;23.90;58.50
24902;DHT22;31328;51.402;0.016;2023-06-26T13:31:36;23.90;58.60
24902;DHT22;31328;51.402;0.016;2023-06-26T13:34:03;23.90;58.90
24902;DHT22;31328;51.402;0.016;2023-06-26T13:36:32;23.90;58.90
24902;DHT22;31328;51.402;0.016;2023-06-26T13:39:02;23.90;59.00
24902;DHT22;31328;51.402;0.016;2023-06-26T13:41:29;23.90;58.70
24902;DHT22;31328;51.402;0.016;2023-06-26T13:43:55;23.90;58.80
24902;DHT22;31328;51.402;0.016;2023-06-26T13:46:22;23.90;59.00
24902;DHT22;31328;51.402;0.016;2023-06-26T13:48:48;23.90;58.60
24902;DHT22;31328;51.402;0.016;2023-06-26T13:51:14;23.80;59.00
24902;DHT22;31328;51.402;0.016;2023-06-26T13:53:41;23.70;58.40
24902;DHT22;31328;51.402;0.016;2023-06-26T13:56:07;23.70;58.50
24902;DHT22;31328;51.402;0.016;2023-06-26T13:58:35;23.60;58.40
24902;DHT22;31328;51.402;0.016;2023-06-26T14:01:02;23.50;58.10
24902;DHT22;31328;51.402;0.016;2023-06-26T14:03:29;23.50;58.30
24902;DHT22;31328;51.402;0.016;2023-06-26T14:05:55;23.50;58.20
24902;DHT22;31328;51.402;0.016;2023-06-26T14:08:21;23.40;58.60
24902;DHT22;31328;51.402;0.016;2023-06-26T14:10:48;23.40;58.20
24902;DHT22;31328;51.402;0.016;2023-06-26T14:13:14;23.40;58.50
24902;DHT22;31328;51.402;0.016;2023-06-26T14:15:42;23.30;58.70
24902;DHT22;31328;51.402;0.016;2023-06-26T14:18:08;23.20;58.60
24902;DHT22;31328;51.402;0.016;2023-06-26T14:20:35;23.20;58.60
24902;DHT22;31328;51.402;0.016;2023-06-26T14:23:02;23.10;58.90
24902;DHT22;31328;51.402;0.016;2023-06-26T14:25:28;23.10;58.80
24902;DHT22;31328;51.402;0.016;2023-06-26T14:27:56;23.10;59.00
24902;DHT22;31328;51.402;0.016;2023-06-26T14:30:23;23.10;58.70
24902;DHT22;31328;51.402;0.016;2023-06-26T14:32:49;23.00;58.80
24902;DHT22;31328;51.402;0.016;2023-06-26T14:35:16;23.00;59.00
24902;DHT22;31328;51.402;0.016;2023-06-26T14:37:42;22.90;59.00
24902;DHT22;31328;51.402;0.016;2023-06-26T14:40:10;22.90;59.10
24902;DHT22;31328;51.402;0.016;2023-06-26T14:42:37;22.90;59.30
24902;DHT22;31328;51.402;0.016;2023-06-26T14:45:03;22.80;59.30
24902;DHT22;31328;51.402;0.016;2023-06-26T14:47:31;22.70;59.10
24902;DHT22;31328;51.402;0.016;2023-06-26T14:49:57;22.70;59.50
24902;DHT22;31328;51.402;0.016;2023-06-26T14:52:23;22.70;59.50
24902;DHT22;31328;51.402;0.016;2023-06-26T14:54:50;22.60;59.70
24902;DHT22;31328;51.402;0.016;2023-06-26T14:57:16;22.60;59.80
24902;DHT22;31328;51.402;0.016;2023-06-26T14:59:42;22.70;59.80
24902;DHT22;31328;51.402;0.016;2023-06-26T15:02:09;22.70;59.70
24902;DHT22;31328;51.402;0.016;2023-06-26T15:04:35;22.70;59.80
24902;DHT22;31328;51.402;0.016;2023-06-26T15:07:01;22.70;59.90
24902;DHT22;31328;51.402;0.016;2023-06-26T15:09:28;22.70;60.00
24902;DHT22;31328;51.402;0.016;2023-06-26T15:11:54;22.70;60.00
24902;DHT22;31328;51.402;0.016;2023-06-26T15:14:20;22.70;60.00
24902;DHT22;31328;51.402;0.016;2023-06-26T15:16:47;22.60;60.00
24902;DHT22;31328;51.402;0.016;2023-06-26T15:19:13;22.60;60.20
24902;DHT22;31328;51.402;0.016;2023-06-26T15:21:39;22.60;60.20
24902;DHT22;31328;51.402;0.016;2023-06-26T15:24:06;22.60;59.80
24902;DHT22;31328;51.402;0.016;2023-06-26T15:26:33;22.60;60.00
24902;DHT22;31328;51.402;0.016;2023-06-26T15:28:59;22.60;59.80
24902;DHT22;31328;51.402;0.016;2023-06-26T15:31:28;22.50;59.90
24902;DHT22;31328;51.402;0.016;2023-06-26T15:33:56;22.50;59.90
24902;DHT22;31328;51.402;0.016;2023-06-26T15:36:22;22.50;60.10
24902;DHT22;31328;51.402;0.016;2023-06-26T15:38:48;22.50;60.00
24902;DHT22;31328;51.402;0.016;2023-06-26T15:41:14;22.60;59.90
24902;DHT22;31328;51.402;0.016;2023-06-26T15:43:41;22.60;59.80